»·PEaware :: N3861Q KSAN-KRAL

N3861Q :: KSAN-KRAL

FLIGHT INFORMATION

Flight Status: Arrived
Operator: Privately registered:
United States
More flights under this callsign
Pilot: Rod M. (882)
Aircraft: PIPER PA-31/31P NAVAJO CHIEFTAIN
(PA31)
More flights by this aircraft type
Origin: KSAN San Diego Intl-Lindbergh
United States
Destination: KRAL Riverside Mun
United States
More flights between these airports :: More routes between these airports
Route: +OCN V23 DANAH V363 POXKU V8 PDZ
File this flight plan on PilotEdge
Remarks:
Altitude:
(Current/Filed)
6,000ft
Speed:
(Current/Filed)
180kts
Departed: 30-Sep-17 07:14 PM
Arrived: 30-Sep-17 08:06 PM
Distance/Time
Traveled:
74nm/0:52
Distance/Time
To Go:
Arrived

Flight Plot

Page will automatically refresh every two minutes.


Map Options




Map Legend


Flown Route
Filed Route
Departure Airport
Arrival Airport
Navaid (VOR, NDB)
Fix

Horizontal Profiles

Position Reports

Time Latitude Longitude Heading Altitude Ground
Speed
30-Sep-17 19:02 32.732420 -117.176651 194 21ft 0kts
30-Sep-17 19:03 32.732420 -117.176651 194 21ft 0kts
30-Sep-17 19:04 32.732420 -117.176651 194 21ft 0kts
30-Sep-17 19:05 32.732420 -117.176651 194 21ft 0kts
30-Sep-17 19:06 32.732420 -117.176651 194 21ft 0kts
30-Sep-17 19:07 32.732420 -117.176651 194 21ft 0kts
30-Sep-17 19:08 32.732420 -117.176651 194 21ft 0kts
30-Sep-17 19:09 32.732420 -117.176651 194 21ft 0kts
30-Sep-17 19:10 32.732420 -117.176651 194 21ft 0kts
30-Sep-17 19:11 32.732420 -117.176651 194 21ft 0kts
30-Sep-17 19:12 32.732420 -117.176651 194 21ft 0kts
30-Sep-17 19:13 32.732420 -117.176651 194 21ft 0kts
30-Sep-17 19:14 32.732420 -117.176651 194 21ft 0kts
30-Sep-17 19:15 32.731921 -117.176786 170 21ft 7kts
30-Sep-17 19:16 32.730883 -117.175249 159 21ft 0kts
30-Sep-17 19:17 32.730876 -117.175246 159 21ft 1kts
30-Sep-17 19:18 32.730780 -117.178212 287 21ft 71kts
30-Sep-17 19:19 32.745856 -117.212302 318 920ft 141kts
30-Sep-17 19:20 32.776254 -117.241155 318 2214ft 143kts
30-Sep-17 19:21 32.808990 -117.269886 323 3362ft 149kts
30-Sep-17 19:22 32.846909 -117.290930 345 4446ft 155kts
30-Sep-17 19:23 32.888961 -117.303732 347 5554ft 160kts
30-Sep-17 19:24 32.935255 -117.317255 347 6038ft 188kts
30-Sep-17 19:25 32.987296 -117.331535 341 6037ft 194kts
30-Sep-17 19:26 33.038865 -117.352497 344 5992ft 196kts
30-Sep-17 19:27 33.091487 -117.369833 345 5992ft 196kts
30-Sep-17 19:28 33.143679 -117.386475 346 5989ft 195kts
30-Sep-17 19:29 33.196068 -117.403146 346 5988ft 195kts
30-Sep-17 19:30 33.246583 -117.424190 317 5995ft 194kts
30-Sep-17 19:31 33.285483 -117.469290 315 5989ft 195kts
30-Sep-17 19:32 33.324159 -117.514539 315 5996ft 194kts
30-Sep-17 19:33 33.362721 -117.559577 315 6023ft 194kts
30-Sep-17 19:34 33.401388 -117.604759 315 6027ft 194kts
30-Sep-17 19:35 33.440059 -117.650006 315 6024ft 195kts
30-Sep-17 19:36 33.479145 -117.694908 329 6006ft 196kts
30-Sep-17 19:37 33.532085 -117.706776 353 6013ft 195kts
30-Sep-17 19:38 33.585829 -117.715773 353 6009ft 195kts
30-Sep-17 19:39 33.639771 -117.724798 353 6005ft 196kts
30-Sep-17 19:40 33.692981 -117.738369 337 6012ft 192kts
30-Sep-17 19:41 33.740704 -117.761254 335 5999ft 180kts
30-Sep-17 19:42 33.787272 -117.781100 356 6000ft 180kts
30-Sep-17 19:43 33.837249 -117.781840 356 5999ft 180kts
30-Sep-17 19:44 33.865341 -117.736192 69 5320ft 182kts
30-Sep-17 19:45 33.879907 -117.679413 69 4992ft 174kts
30-Sep-17 19:46 33.894160 -117.623656 69 4986ft 173kts
30-Sep-17 19:47 33.908318 -117.569431 69 4993ft 168kts
30-Sep-17 19:48 33.921545 -117.517335 69 4994ft 167kts
30-Sep-17 19:49 33.928984 -117.462704 99 4996ft 172kts
30-Sep-17 19:50 33.918323 -117.406257 99 4998ft 174kts
30-Sep-17 19:51 33.907632 -117.349374 100 4997ft 175kts
30-Sep-17 19:52 33.893388 -117.293288 108 5006ft 175kts
30-Sep-17 19:53 33.875859 -117.238240 109 5010ft 175kts
30-Sep-17 19:54 33.858385 -117.183307 109 5016ft 177kts
30-Sep-17 19:55 33.840821 -117.127920 109 5020ft 177kts
30-Sep-17 19:56 33.823262 -117.072455 109 5008ft 178kts
30-Sep-17 19:57 33.840890 -117.039488 337 4997ft 145kts
30-Sep-17 19:58 33.875670 -117.060810 331 5008ft 137kts
30-Sep-17 19:59 33.909033 -117.081787 331 5018ft 134kts
30-Sep-17 20:00 33.923465 -117.113658 242 5026ft 138kts
30-Sep-17 20:01 33.887952 -117.120570 210 5022ft 140kts
30-Sep-17 20:02 33.892414 -117.156469 308 4917ft 129kts
30-Sep-17 20:03 33.905428 -117.197106 282 4421ft 132kts
30-Sep-17 20:04 33.912578 -117.238648 284 4197ft 126kts
30-Sep-17 20:05 33.920030 -117.277583 281 3335ft 115kts
30-Sep-17 20:06 33.927186 -117.315269 281 2796ft 115kts
30-Sep-17 20:07 33.934522 -117.352239 283 2186ft 113kts
30-Sep-17 20:08 33.941655 -117.388725 282 1537ft 115kts
30-Sep-17 20:09 33.948413 -117.424482 284 1042ft 113kts
30-Sep-17 20:10 33.952671 -117.445729 283 820ft 9kts
30-Sep-17 20:11 33.952116 -117.446325 194 820ft 0kts
30-Sep-17 20:12 33.952108 -117.446327 193 820ft 1kts
30-Sep-17 20:13 33.950866 -117.443631 128 820ft 10kts
30-Sep-17 20:14 33.949393 -117.444057 309 820ft 3kts
30-Sep-17 20:15 33.949361 -117.444335 295 820ft 0kts
30-Sep-17 20:16 33.949361 -117.444335 295 820ft 0kts

Navigation Log

Ident Type
1. KSAN Airport
2. OCN Navaid
3. KELPS Fix
4. DANAH Fix
5. ELB Navaid
6. JOGIT Fix
7. POXKU Fix
8. EBITE Fix
9. PDZ Navaid
10. KRAL Airport